San Francisco, California
Current Conditions -  °F | °C
As of 8:56 PM on Tuesday 25 Nov 2014 (Local Time) from KSFO Reporting Station
Clear Clear  
Wind Chill: 58°   Ceiling: Unl
Heat Index: 58°   Visibility: 10mi
Dew Point: 51°   Wind: 5mph
Humidity: 78%   Direction: 120°ESE
Pressure: 30.35"   Gusts: NA
Location:  37.78°N, 122.42°W
Report Text: KSFO 260456Z 12004KT 10SM CLR 14/11 A3035 RMK AO2 SLP278 T01440106
Loading
Personal Weather Stations






























Interactive Weather Map New forecast layout! Learn more

10-Day Weather Forecast

Advertisements
Track Severe Weather on mobile